Time;durP1;ratioP1;P1;durP2;ratioP2;P2;SDS_P1;SDS_P2;PMS_P1;PMS_P2;Temp;Humidity;BMP_temperature;BMP_pressure;BME280_temperature;BME280_humidity;BME280_pressure;Samples;Min_cycle;Max_cycle;Signal;HPM_P1;HPM_P2
2022/03/01 00:00:50;;;;;;;;;;;0.70;70.40;;;;;;5192940;28;19925;-36
2022/03/01 00:03:24;;;;;;;;;;;0.70;70.60;;;;;;5192454;28;19951;-38
2022/03/01 00:05:56;;;;;;;;;;;0.70;69.70;;;;;;5185723;28;20509;-36
2022/03/01 00:08:29;;;;;;;;;;;0.70;70.00;;;;;;5193293;28;19956;-36
2022/03/01 00:11:01;;;;;;;;;;;0.60;70.10;;;;;;5187453;28;19936;-37
2022/03/01 00:13:36;;;;;;;;;;;0.60;70.70;;;;;;5192350;28;20297;-36
2022/03/01 00:16:08;;;;;;;;;;;0.60;69.90;;;;;;5191569;28;19921;-37
2022/03/01 00:18:41;;;;;;;;;;;0.60;70.80;;;;;;5194028;28;19929;-36
2022/03/01 00:21:13;;;;;;;;;;;-0.20;70.00;;;;;;5194725;28;19924;-35
2022/03/01 00:23:46;;;;;;;;;;;0.60;71.20;;;;;;5195218;28;19929;-36
2022/03/01 00:26:18;;;;;;;;;;;0.50;70.70;;;;;;5194600;28;19940;-36
2022/03/01 00:28:50;;;;;;;;;;;0.50;71.20;;;;;;5196949;28;19932;-36
2022/03/01 00:31:22;;;;;;;;;;;0.50;71.80;;;;;;5192993;28;20178;-35
2022/03/01 00:33:55;;;;;;;;;;;0.50;69.60;;;;;;5194223;28;19928;-36
2022/03/01 00:36:27;;;;;;;;;;;0.40;70.50;;;;;;5194510;28;19921;-37
2022/03/01 00:38:59;;;;;;;;;;;0.40;71.30;;;;;;5194803;28;19925;-36
2022/03/01 00:41:32;;;;;;;;;;;0.40;71.40;;;;;;5194112;28;20308;-36
2022/03/01 00:44:04;;;;;;;;;;;0.40;71.50;;;;;;5192875;28;20004;-36
2022/03/01 00:46:37;;;;;;;;;;;0.30;72.50;;;;;;5173485;28;19925;-36
2022/03/01 00:49:09;;;;;;;;;;;0.30;70.70;;;;;;5191921;28;19931;-37
2022/03/01 00:51:41;;;;;;;;;;;0.30;71.80;;;;;;5158359;28;19928;-36
2022/03/01 00:54:13;;;;;;;;;;;0.30;71.50;;;;;;5190472;28;20385;-36
2022/03/01 00:56:46;;;;;;;;;;;0.20;71.00;;;;;;5194615;28;19940;-37
2022/03/01 00:59:18;;;;;;;;;;;0.20;71.40;;;;;;5194267;28;20396;-38
2022/03/01 01:01:50;;;;;;;;;;;0.20;71.00;;;;;;5189883;28;20482;-36
2022/03/01 01:04:23;;;;;;;;;;;0.10;70.80;;;;;;5193086;28;19928;-37
2022/03/01 01:06:56;;;;;;;;;;;0.20;72.20;;;;;;5174971;28;19928;-36
2022/03/01 01:09:28;;;;;;;;;;;0.00;72.90;;;;;;5192163;28;20320;-36
2022/03/01 01:12:00;;;;;;;;;;;0.00;72.10;;;;;;5192871;28;19936;-36
2022/03/01 01:14:32;;;;;;;;;;;-0.10;72.20;;;;;;5193548;28;20470;-36
2022/03/01 01:17:05;;;;;;;;;;;-0.10;72.20;;;;;;5193853;28;20478;-37
2022/03/01 01:19:37;;;;;;;;;;;-0.20;71.40;;;;;;5193559;28;19925;-37
2022/03/01 01:25:04;;;;;;;;;;;-0.10;73.30;;;;;;5191011;28;19921;-37
2022/03/01 01:27:38;;;;;;;;;;;-0.20;72.50;;;;;;5193073;28;19921;-37
2022/03/01 01:30:14;;;;;;;;;;;-0.20;72.90;;;;;;5174216;28;19925;-36
2022/03/01 01:32:48;;;;;;;;;;;-0.20;73.10;;;;;;5191906;28;19921;-36
2022/03/01 01:35:23;;;;;;;;;;;-0.20;72.20;;;;;;5196102;28;19929;-37
2022/03/01 01:37:56;;;;;;;;;;;-0.30;72.70;;;;;;5195337;28;19929;-36
2022/03/01 01:40:29;;;;;;;;;;;-0.30;73.10;;;;;;5194578;28;19921;-37
2022/03/01 01:43:03;;;;;;;;;;;-0.20;73.90;;;;;;5196319;28;19944;-36
2022/03/01 01:45:35;;;;;;;;;;;-0.40;73.40;;;;;;5197210;28;19947;-36
2022/03/01 01:48:08;;;;;;;;;;;-0.50;73.10;;;;;;5196510;28;19921;-36
2022/03/01 01:50:40;;;;;;;;;;;-0.40;74.20;;;;;;5192679;28;19936;-36
2022/03/01 01:53:12;;;;;;;;;;;-0.40;74.50;;;;;;5194024;28;19925;-36
2022/03/01 01:55:45;;;;;;;;;;;-0.40;75.40;;;;;;5195419;28;19921;-36
2022/03/01 01:58:18;;;;;;;;;;;-0.60;75.10;;;;;;5195699;28;19928;-36
2022/03/01 02:00:50;;;;;;;;;;;-0.60;75.90;;;;;;5195785;28;19921;-37
2022/03/01 02:03:22;;;;;;;;;;;-0.60;75.70;;;;;;5191330;28;20384;-36
2022/03/01 02:05:55;;;;;;;;;;;-0.60;75.50;;;;;;5196226;28;20165;-36
2022/03/01 02:08:30;;;;;;;;;;;0.00;76.00;;;;;;5194279;28;19921;-36
2022/03/01 02:11:02;;;;;;;;;;;-0.60;75.60;;;;;;5192329;28;20377;-36
2022/03/01 02:13:35;;;;;;;;;;;-0.40;75.90;;;;;;5192026;28;19929;-38
2022/03/01 02:16:08;;;;;;;;;;;-0.60;75.70;;;;;;5194947;28;19925;-35
2022/03/01 02:18:40;;;;;;;;;;;-0.60;74.70;;;;;;5195350;28;19935;-36
2022/03/01 02:21:12;;;;;;;;;;;-0.70;75.50;;;;;;5193527;28;20031;-37
2022/03/01 02:23:44;;;;;;;;;;;-0.80;75.20;;;;;;5177599;28;19921;-37
2022/03/01 02:26:17;;;;;;;;;;;-0.80;76.00;;;;;;5175631;28;20208;-37
2022/03/01 02:28:49;;;;;;;;;;;-0.60;75.30;;;;;;5195682;28;19925;-37
2022/03/01 02:31:21;;;;;;;;;;;-0.90;75.30;;;;;;5195111;28;19933;-37
2022/03/01 02:33:53;;;;;;;;;;;-0.70;76.10;;;;;;5195221;28;19943;-38
2022/03/01 02:36:26;;;;;;;;;;;-0.70;75.60;;;;;;5195989;28;19940;-37
2022/03/01 02:38:58;;;;;;;;;;;-0.80;75.00;;;;;;5194133;28;20389;-37
2022/03/01 02:41:30;;;;;;;;;;;-0.80;74.60;;;;;;5176909;28;19925;-36
2022/03/01 02:44:03;;;;;;;;;;;-0.80;74.90;;;;;;5193277;28;19980;-37
2022/03/01 02:46:35;;;;;;;;;;;-0.80;75.30;;;;;;5175618;28;19925;-36
2022/03/01 02:49:08;;;;;;;;;;;-0.90;74.70;;;;;;5195791;28;20310;-36
2022/03/01 02:51:42;;;;;;;;;;;-0.80;74.40;;;;;;5194385;28;19932;-38
2022/03/01 02:54:15;;;;;;;;;;;-0.80;76.10;;;;;;5192529;28;19932;-38
2022/03/01 02:56:47;;;;;;;;;;;-0.90;76.90;;;;;;5171262;28;20292;-37
2022/03/01 02:59:19;;;;;;;;;;;-1.00;76.70;;;;;;5196465;28;20321;-36
2022/03/01 03:01:51;;;;;;;;;;;-0.80;75.70;;;;;;5194006;28;19958;-37
2022/03/01 03:04:24;;;;;;;;;;;-1.10;76.80;;;;;;5195749;28;19928;-37
2022/03/01 03:06:56;;;;;;;;;;;-1.10;76.90;;;;;;5196965;28;19925;-37
2022/03/01 03:09:29;;;;;;;;;;;-1.20;75.80;;;;;;5159659;28;20179;-36
2022/03/01 03:12:01;;;;;;;;;;;-1.20;77.20;;;;;;5191442;28;19921;-36
2022/03/01 03:14:34;;;;;;;;;;;-1.30;77.30;;;;;;5169923;28;19936;-38
2022/03/01 03:17:06;;;;;;;;;;;-1.30;77.10;;;;;;5188800;28;19936;-37
2022/03/01 03:19:38;;;;;;;;;;;-1.30;77.00;;;;;;5191518;28;19925;-37
2022/03/01 03:22:10;;;;;;;;;;;-1.20;78.00;;;;;;5193011;28;19928;-37
2022/03/01 03:24:43;;;;;;;;;;;-1.40;77.90;;;;;;5191027;28;19929;-36
2022/03/01 03:27:15;;;;;;;;;;;-1.30;77.70;;;;;;5191541;28;20002;-36
2022/03/01 03:29:47;;;;;;;;;;;-1.00;78.40;;;;;;5185890;28;19925;-36
2022/03/01 03:32:20;;;;;;;;;;;-1.30;78.50;;;;;;5186472;28;19921;-36
2022/03/01 03:34:53;;;;;;;;;;;-1.50;77.40;;;;;;5176631;28;19925;-36
2022/03/01 03:37:26;;;;;;;;;;;-1.40;77.70;;;;;;5191629;28;19920;-37
2022/03/01 03:39:58;;;;;;;;;;;-1.50;77.20;;;;;;5194276;28;19935;-37
2022/03/01 03:42:30;;;;;;;;;;;-1.60;78.30;;;;;;5187767;28;19925;-36
2022/03/01 03:45:03;;;;;;;;;;;-1.60;77.90;;;;;;5190000;28;19955;-36
2022/03/01 03:47:36;;;;;;;;;;;-2.30;78.00;;;;;;5172602;28;19936;-36
2022/03/01 03:50:09;;;;;;;;;;;-1.60;79.00;;;;;;5195117;28;19921;-36
2022/03/01 03:52:41;;;;;;;;;;;-1.70;78.20;;;;;;5174922;28;19921;-36
2022/03/01 03:55:14;;;;;;;;;;;-1.80;79.70;;;;;;5190249;28;20369;-37
2022/03/01 03:57:46;;;;;;;;;;;-1.80;79.70;;;;;;5190069;28;20385;-38
2022/03/01 04:00:18;;;;;;;;;;;-1.90;80.00;;;;;;5191188;28;19931;-36
2022/03/01 04:02:54;;;;;;;;;;;-1.50;80.20;;;;;;5192616;28;19939;-37
2022/03/01 04:05:27;;;;;;;;;;;-1.90;80.10;;;;;;5193645;28;20382;-36
2022/03/01 04:07:59;;;;;;;;;;;-1.90;80.70;;;;;;5193739;28;19932;-36
2022/03/01 04:10:31;;;;;;;;;;;-2.00;80.40;;;;;;5189802;28;20384;-38
2022/03/01 04:13:04;;;;;;;;;;;-1.50;81.10;;;;;;5191187;28;19924;-37
2022/03/01 04:15:37;;;;;;;;;;;-2.00;80.20;;;;;;5192449;28;19925;-36
2022/03/01 04:18:09;;;;;;;;;;;-1.30;80.80;;;;;;5203159;23;20553;-75
2022/03/01 04:20:41;;;;;;;;;;;-2.00;80.70;;;;;;5190316;28;19920;-75
2022/03/01 04:23:13;;;;;;;;;;;-2.00;80.00;;;;;;5200457;28;19925;-75
2022/03/01 04:25:46;;;;;;;;;;;-1.40;81.20;;;;;;5194022;28;20252;-78
2022/03/01 04:28:18;;;;;;;;;;;-1.30;80.80;;;;;;5208837;28;19924;-75
2022/03/01 04:30:50;;;;;;;;;;;-2.00;80.90;;;;;;5204240;28;19928;-78
2022/03/01 04:33:22;;;;;;;;;;;-3.20;79.70;;;;;;5207146;28;19925;-76
2022/03/01 04:35:58;;;;;;;;;;;-2.70;79.90;;;;;;5190268;28;20796;-78
2022/03/01 04:38:30;;;;;;;;;;;-1.80;81.50;;;;;;5209920;28;19928;-76
2022/03/01 04:41:03;;;;;;;;;;;-2.00;80.80;;;;;;5203663;28;19933;-78
2022/03/01 04:43:35;;;;;;;;;;;-1.30;82.00;;;;;;5195841;28;20312;-77
2022/03/01 04:46:08;;;;;;;;;;;-1.60;80.50;;;;;;5205396;28;19925;-75
2022/03/01 04:48:40;;;;;;;;;;;-2.10;80.40;;;;;;5208712;28;19936;-77
2022/03/01 04:51:12;;;;;;;;;;;-0.80;80.60;;;;;;5206734;28;19929;-77
2022/03/01 04:53:44;;;;;;;;;;;-2.20;79.70;;;;;;5206787;28;19927;-77
2022/03/01 04:56:17;;;;;;;;;;;-2.60;79.80;;;;;;5206555;28;19948;-75
2022/03/01 04:58:49;;;;;;;;;;;-2.20;80.20;;;;;;5205382;28;19921;-76
2022/03/01 05:01:21;;;;;;;;;;;-2.30;79.80;;;;;;5205813;28;19921;-75
2022/03/01 05:03:54;;;;;;;;;;;-1.60;80.40;;;;;;5188142;28;19928;-78
2022/03/01 05:06:26;;;;;;;;;;;-1.10;80.60;;;;;;5190468;28;19932;-78
2022/03/01 05:08:58;;;;;;;;;;;-2.30;80.20;;;;;;5196921;28;19935;-76
2022/03/01 05:11:30;;;;;;;;;;;-2.00;81.50;;;;;;5205642;28;19924;-76
2022/03/01 05:14:03;;;;;;;;;;;-2.30;80.80;;;;;;5192188;28;19925;-74
2022/03/01 05:16:35;;;;;;;;;;;-2.20;81.50;;;;;;5205283;28;19924;-75
2022/03/01 05:19:09;;;;;;;;;;;-2.10;80.80;;;;;;5204769;28;19932;-74
2022/03/01 05:21:41;;;;;;;;;;;-2.10;81.50;;;;;;5205354;28;19929;-74
2022/03/01 05:24:14;;;;;;;;;;;-2.10;81.70;;;;;;5187724;28;19925;-74
2022/03/01 05:26:47;;;;;;;;;;;-2.00;81.50;;;;;;5204887;28;20515;-77
2022/03/01 05:29:19;;;;;;;;;;;-2.00;81.30;;;;;;5205847;28;19920;-74
2022/03/01 05:31:53;;;;;;;;;;;-1.60;81.50;;;;;;5203568;28;19944;-74
2022/03/01 05:34:26;;;;;;;;;;;-2.60;81.60;;;;;;5185799;28;19928;-73
2022/03/01 05:36:58;;;;;;;;;;;-2.60;81.80;;;;;;5189317;28;19925;-75
2022/03/01 05:39:30;;;;;;;;;;;-2.60;82.30;;;;;;5206666;28;20478;-73
2022/03/01 05:42:03;;;;;;;;;;;-2.60;82.40;;;;;;5205443;28;19917;-75
2022/03/01 05:44:35;;;;;;;;;;;-2.50;82.90;;;;;;5195040;28;19925;-74
2022/03/01 05:47:07;;;;;;;;;;;-2.70;82.10;;;;;;5201476;28;20430;-76
2022/03/01 05:49:39;;;;;;;;;;;-2.60;82.60;;;;;;5202648;28;19928;-76
2022/03/01 05:52:12;;;;;;;;;;;-2.80;82.20;;;;;;5204526;28;20377;-74
2022/03/01 05:54:44;;;;;;;;;;;-2.80;82.30;;;;;;5203571;28;20276;-76
2022/03/01 05:57:16;;;;;;;;;;;-2.90;82.50;;;;;;5204371;28;19932;-76
2022/03/01 05:59:48;;;;;;;;;;;-2.90;83.10;;;;;;5205405;28;19936;-73
2022/03/01 06:02:21;;;;;;;;;;;-2.90;83.10;;;;;;5202789;28;19917;-76
2022/03/01 06:04:53;;;;;;;;;;;-2.20;83.00;;;;;;5194717;28;19917;-76
2022/03/01 06:07:25;;;;;;;;;;;-3.00;82.80;;;;;;5202527;28;19917;-78
2022/03/01 06:09:57;;;;;;;;;;;-3.60;81.60;;;;;;5204493;28;19924;-74
2022/03/01 06:12:30;;;;;;;;;;;-2.40;82.10;;;;;;5205000;28;19936;-76
2022/03/01 06:15:03;;;;;;;;;;;-2.80;82.10;;;;;;5181025;28;20316;-75
2022/03/01 06:17:36;;;;;;;;;;;-1.90;83.00;;;;;;5204803;28;20411;-76
2022/03/01 06:20:09;;;;;;;;;;;-2.00;83.30;;;;;;5207391;28;20495;-76
2022/03/01 06:22:41;;;;;;;;;;;-2.60;83.20;;;;;;5209020;28;19936;-74
2022/03/01 06:25:14;;;;;;;;;;;-2.80;83.00;;;;;;5206678;28;19928;-77
2022/03/01 06:27:46;;;;;;;;;;;-2.40;82.10;;;;;;5182181;28;19925;-74
2022/03/01 06:30:22;;;;;;;;;;;-1.60;82.20;;;;;;5206970;28;19920;-75
2022/03/01 06:32:54;;;;;;;;;;;-1.70;82.00;;;;;;5208601;28;19921;-74
2022/03/01 06:35:26;;;;;;;;;;;-1.70;81.70;;;;;;5205847;28;19916;-78
2022/03/01 06:37:58;;;;;;;;;;;-2.60;82.40;;;;;;5174472;28;19925;-74
2022/03/01 06:40:30;;;;;;;;;;;-0.90;83.50;;;;;;5190416;28;19927;-74
2022/03/01 06:43:03;;;;;;;;;;;-2.60;82.70;;;;;;5188516;28;20393;-74
2022/03/01 06:45:35;;;;;;;;;;;-2.40;82.50;;;;;;5195145;28;19940;-75
2022/03/01 06:48:09;;;;;;;;;;;-1.80;83.20;;;;;;5197952;28;19931;-76
2022/03/01 06:50:41;;;;;;;;;;;-2.00;83.20;;;;;;5188224;28;19936;-76
2022/03/01 06:53:14;;;;;;;;;;;-2.00;83.30;;;;;;5166563;28;19929;-75
2022/03/01 06:55:46;;;;;;;;;;;-2.20;81.50;;;;;;5202273;28;20273;-75
2022/03/01 06:58:20;;;;;;;;;;;-1.60;82.10;;;;;;5188681;28;19936;-77
2022/03/01 07:00:52;;;;;;;;;;;-1.90;82.20;;;;;;5184813;28;19925;-75
2022/03/01 07:03:25;;;;;;;;;;;-1.30;81.60;;;;;;5206389;28;20305;-77
2022/03/01 07:05:58;;;;;;;;;;;-1.90;81.80;;;;;;5206826;28;19925;-76
2022/03/01 07:08:30;;;;;;;;;;;-1.80;81.20;;;;;;5210159;28;20324;-76
2022/03/01 07:11:03;;;;;;;;;;;-1.00;81.50;;;;;;5180844;28;19925;-75
2022/03/01 07:13:35;;;;;;;;;;;-1.70;79.20;;;;;;5202278;28;20472;-73
2022/03/01 07:16:07;;;;;;;;;;;-1.80;78.80;;;;;;5207481;28;19928;-76
2022/03/01 07:18:40;;;;;;;;;;;-1.00;79.70;;;;;;5188689;28;20051;-75
2022/03/01 07:21:13;;;;;;;;;;;-1.50;79.10;;;;;;5188632;28;19920;-75
2022/03/01 07:23:45;;;;;;;;;;;-1.20;79.00;;;;;;5209203;28;19921;-75
2022/03/01 07:26:17;;;;;;;;;;;-1.10;78.80;;;;;;5200071;28;19951;-74
2022/03/01 07:28:50;;;;;;;;;;;-1.30;78.90;;;;;;5167299;28;19936;-75
2022/03/01 07:31:22;;;;;;;;;;;-1.20;79.30;;;;;;5199658;28;20007;-77
2022/03/01 07:33:57;;;;;;;;;;;0.00;78.30;;;;;;5189639;28;20399;-76
2022/03/01 07:36:30;;;;;;;;;;;-1.00;80.50;;;;;;5207399;28;20384;-75
2022/03/01 07:39:03;;;;;;;;;;;-1.00;77.30;;;;;;5191099;28;19925;-76
2022/03/01 07:41:35;;;;;;;;;;;-1.50;79.20;;;;;;5184097;28;20473;-75
2022/03/01 07:44:07;;;;;;;;;;;-0.50;77.90;;;;;;5205002;28;19925;-76
2022/03/01 07:46:39;;;;;;;;;;;0.20;78.10;;;;;;5172186;28;19936;-78
2022/03/01 07:49:11;;;;;;;;;;;-0.50;77.30;;;;;;5204314;28;19924;-76
2022/03/01 07:51:44;;;;;;;;;;;0.20;77.80;;;;;;5202059;28;19924;-76
2022/03/01 07:54:16;;;;;;;;;;;0.60;76.80;;;;;;5203177;28;19927;-75
2022/03/01 07:56:49;;;;;;;;;;;0.40;76.50;;;;;;5202212;28;19921;-75
2022/03/01 07:59:21;;;;;;;;;;;0.20;76.60;;;;;;5203257;28;20299;-74
2022/03/01 08:01:54;;;;;;;;;;;-0.10;75.60;;;;;;5193552;28;19921;-75
2022/03/01 08:04:26;;;;;;;;;;;0.10;75.40;;;;;;5200946;28;19921;-76
2022/03/01 08:06:59;;;;;;;;;;;2.90;77.00;;;;;;5197399;28;19921;-75
2022/03/01 08:09:31;;;;;;;;;;;0.00;73.90;;;;;;5202537;28;19921;-77
2022/03/01 08:12:05;;;;;;;;;;;1.20;75.50;;;;;;5162856;28;19947;-76
2022/03/01 08:14:37;;;;;;;;;;;-0.80;77.20;;;;;;5200786;28;20431;-78
2022/03/01 08:17:09;;;;;;;;;;;0.00;74.20;;;;;;5200058;28;19935;-75
2022/03/01 08:19:42;;;;;;;;;;;0.60;73.20;;;;;;5203214;28;19928;-76
2022/03/01 08:22:14;;;;;;;;;;;0.00;74.50;;;;;;5186791;28;19936;-75
2022/03/01 08:24:47;;;;;;;;;;;0.60;73.70;;;;;;5189172;28;19925;-77
2022/03/01 08:27:19;;;;;;;;;;;1.20;73.10;;;;;;5186592;28;19925;-77
2022/03/01 08:29:52;;;;;;;;;;;0.50;71.80;;;;;;5204248;28;20421;-77
2022/03/01 08:32:25;;;;;;;;;;;0.80;71.80;;;;;;5206981;28;20442;-76
2022/03/01 08:34:57;;;;;;;;;;;1.20;71.40;;;;;;5204794;28;19944;-79
2022/03/01 08:37:29;;;;;;;;;;;0.90;71.70;;;;;;5202609;28;19924;-77
2022/03/01 08:40:04;;;;;;;;;;;0.80;70.50;;;;;;5201718;28;20904;-77
2022/03/01 08:42:36;;;;;;;;;;;1.00;69.10;;;;;;5181154;28;19925;-77
2022/03/01 08:45:09;;;;;;;;;;;1.00;71.70;;;;;;5184578;28;20311;-76
2022/03/01 08:47:43;;;;;;;;;;;1.10;70.00;;;;;;5206769;28;19940;-77
2022/03/01 08:50:15;;;;;;;;;;;1.00;68.40;;;;;;5205114;28;20414;-77
2022/03/01 08:53:07;;;;;;;;;;;1.10;67.60;;;;;;5186245;28;19932;-76
2022/03/01 08:55:40;;;;;;;;;;;1.30;67.30;;;;;;5199996;28;20355;-76
2022/03/01 08:58:12;;;;;;;;;;;1.10;68.60;;;;;;5202511;28;19925;-77
2022/03/01 09:00:45;;;;;;;;;;;1.20;69.20;;;;;;5204508;28;20407;-77
2022/03/01 09:03:18;;;;;;;;;;;1.30;68.20;;;;;;5205735;28;19921;-76
2022/03/01 09:06:10;;;;;;;;;;;1.20;66.30;;;;;;4843379;28;10001717;-76
2022/03/01 09:08:42;;;;;;;;;;;2.30;67.70;;;;;;5192150;28;19921;-77
2022/03/01 09:11:15;;;;;;;;;;;1.20;66.80;;;;;;5208118;28;19920;-76
2022/03/01 09:13:47;;;;;;;;;;;2.60;68.30;;;;;;5204850;28;19929;-76
2022/03/01 09:16:19;;;;;;;;;;;1.50;68.10;;;;;;5187870;28;19927;-77
2022/03/01 09:18:51;;;;;;;;;;;0.60;67.40;;;;;;5175594;28;19924;-78
2022/03/01 09:21:24;;;;;;;;;;;1.30;66.40;;;;;;5204812;28;19969;-77
2022/03/01 09:23:56;;;;;;;;;;;2.20;66.50;;;;;;5199819;28;19925;-76
2022/03/01 09:26:28;;;;;;;;;;;1.90;66.60;;;;;;5170381;28;19931;-77
2022/03/01 09:29:00;;;;;;;;;;;2.70;66.90;;;;;;5201297;28;19932;-77
2022/03/01 09:31:35;;;;;;;;;;;2.90;66.20;;;;;;5203018;28;19921;-77
2022/03/01 09:34:07;;;;;;;;;;;1.80;66.10;;;;;;5185015;28;20008;-76
2022/03/01 09:36:39;;;;;;;;;;;1.90;65.70;;;;;;5203163;28;20308;-77
2022/03/01 09:39:12;;;;;;;;;;;2.80;68.70;;;;;;5196993;28;19925;-76
2022/03/01 09:41:44;;;;;;;;;;;2.60;65.40;;;;;;5197101;28;19925;-76
2022/03/01 09:44:17;;;;;;;;;;;2.90;66.80;;;;;;5202670;28;20447;-76
2022/03/01 09:46:50;;;;;;;;;;;2.80;66.00;;;;;;5184860;28;19925;-77
2022/03/01 09:49:22;;;;;;;;;;;2.20;65.70;;;;;;5201345;28;19921;-76
2022/03/01 09:51:55;;;;;;;;;;;2.70;65.10;;;;;;5182066;28;19929;-77
2022/03/01 09:54:28;;;;;;;;;;;2.20;65.10;;;;;;5189506;28;20871;-77
2022/03/01 09:57:00;;;;;;;;;;;2.40;66.40;;;;;;5188041;28;19932;-76
2022/03/01 09:59:33;;;;;;;;;;;2.40;64.80;;;;;;5189703;28;19924;-77
2022/03/01 10:02:05;;;;;;;;;;;2.80;65.00;;;;;;5196075;28;20384;-76
2022/03/01 10:04:49;;;;;;;;;;;2.70;65.40;;;;;;5205772;28;19928;-77
2022/03/01 10:07:25;;;;;;;;;;;2.40;65.30;;;;;;5206751;28;20019;-75
2022/03/01 10:10:05;;;;;;;;;;;2.20;66.20;;;;;;5206765;28;19925;-75
2022/03/01 10:12:37;;;;;;;;;;;2.70;65.90;;;;;;5206096;28;19932;-78
2022/03/01 10:15:10;;;;;;;;;;;2.80;64.40;;;;;;5207094;28;19925;-77
2022/03/01 10:17:44;;;;;;;;;;;3.00;66.70;;;;;;5196494;28;19924;-76
2022/03/01 10:20:18;;;;;;;;;;;3.10;64.90;;;;;;5187113;28;19940;-76
2022/03/01 10:22:54;;;;;;;;;;;3.20;62.10;;;;;;5187466;28;19920;-76
2022/03/01 10:25:26;;;;;;;;;;;3.30;62.50;;;;;;5184056;28;19932;-76
2022/03/01 10:27:59;;;;;;;;;;;3.50;61.90;;;;;;5202484;28;19928;-76
2022/03/01 10:30:33;;;;;;;;;;;3.50;60.80;;;;;;5204984;28;19932;-77
2022/03/01 10:33:08;;;;;;;;;;;5.40;61.80;;;;;;5204409;28;19942;-76
2022/03/01 10:35:42;;;;;;;;;;;3.70;61.00;;;;;;5200653;28;19936;-76
2022/03/01 10:38:18;;;;;;;;;;;4.00;61.90;;;;;;5203464;28;20381;-76
2022/03/01 10:40:58;;;;;;;;;;;3.90;61.30;;;;;;5187565;28;19928;-76
2022/03/01 10:43:30;;;;;;;;;;;4.00;61.30;;;;;;5187316;28;19925;-76
2022/03/01 10:46:06;;;;;;;;;;;4.30;59.80;;;;;;5171404;28;19929;-77
2022/03/01 10:48:39;;;;;;;;;;;5.10;61.60;;;;;;5198006;28;19931;-77
2022/03/01 10:51:11;;;;;;;;;;;4.30;59.20;;;;;;5194746;28;19923;-76
2022/03/01 10:53:46;;;;;;;;;;;4.20;57.30;;;;;;5227581;28;19935;-75
2022/03/01 10:56:19;;;;;;;;;;;4.80;57.40;;;;;;5209767;28;19936;-76
2022/03/01 10:58:56;;;;;;;;;;;4.20;56.70;;;;;;5208567;28;19940;-76
2022/03/01 11:01:28;;;;;;;;;;;4.50;58.80;;;;;;5194515;28;19940;-76
2022/03/01 11:04:01;;;;;;;;;;;4.40;59.70;;;;;;5208058;28;19928;-77
2022/03/01 11:06:34;;;;;;;;;;;4.60;56.70;;;;;;5190154;28;20010;-75
2022/03/01 11:09:07;;;;;;;;;;;4.80;60.10;;;;;;5191722;28;19924;-77
2022/03/01 11:11:40;;;;;;;;;;;4.80;55.90;;;;;;5209813;28;19936;-75
2022/03/01 11:14:14;;;;;;;;;;;4.60;56.70;;;;;;5193283;28;19921;-76
2022/03/01 11:16:55;;;;;;;;;;;4.80;53.90;;;;;;5177960;28;19925;-76
2022/03/01 11:19:49;;;;;;;;;;;4.90;54.50;;;;;;5209851;28;19924;-77
2022/03/01 11:22:25;;;;;;;;;;;4.90;54.00;;;;;;5214791;28;19932;-76
2022/03/01 11:24:57;;;;;;;;;;;4.90;53.60;;;;;;5196645;28;19924;-76
2022/03/01 11:27:41;;;;;;;;;;;4.90;52.90;;;;;;5210684;28;19921;-77
2022/03/01 11:30:15;;;;;;;;;;;5.00;53.30;;;;;;5179043;28;19965;-76
2022/03/01 11:32:53;;;;;;;;;;;5.20;54.30;;;;;;5210895;28;19929;-76
2022/03/01 11:35:27;;;;;;;;;;;5.30;52.70;;;;;;5206889;28;19921;-76
2022/03/01 11:38:01;;;;;;;;;;;4.70;50.80;;;;;;5176867;28;19925;-75
2022/03/01 11:40:44;;;;;;;;;;;5.30;52.10;;;;;;5177299;28;19959;-76
2022/03/01 11:43:21;;;;;;;;;;;5.40;51.50;;;;;;5205555;28;19925;-76
2022/03/01 11:45:58;;;;;;;;;;;5.50;55.30;;;;;;5189375;28;19936;-76
2022/03/01 11:48:30;;;;;;;;;;;5.60;53.20;;;;;;5189969;28;19921;-75
2022/03/01 11:51:04;;;;;;;;;;;5.70;53.20;;;;;;5189050;28;19936;-76
2022/03/01 11:53:38;;;;;;;;;;;5.80;51.50;;;;;;5204219;28;19924;-74
2022/03/01 11:56:11;;;;;;;;;;;5.80;51.10;;;;;;5202109;28;19936;-74
2022/03/01 11:58:48;;;;;;;;;;;6.00;53.90;;;;;;5201809;28;19925;-74
2022/03/01 12:01:22;;;;;;;;;;;5.90;49.40;;;;;;5187878;28;20013;-74
2022/03/01 12:03:58;;;;;;;;;;;5.90;51.50;;;;;;4843689;28;9999832;-74
2022/03/01 12:06:32;;;;;;;;;;;5.90;51.40;;;;;;5186515;28;19925;-76
2022/03/01 12:09:06;;;;;;;;;;;5.90;50.60;;;;;;5202129;28;19925;-75
2022/03/01 12:11:45;;;;;;;;;;;5.90;51.40;;;;;;5203840;28;19932;-74
2022/03/01 12:14:19;;;;;;;;;;;5.90;49.60;;;;;;5201246;28;19929;-73
2022/03/01 12:16:51;;;;;;;;;;;5.90;51.90;;;;;;5181107;28;19925;-74
2022/03/01 12:19:23;;;;;;;;;;;5.90;49.60;;;;;;5198654;28;19925;-74
2022/03/01 12:21:58;;;;;;;;;;;5.90;52.00;;;;;;5197892;28;19928;-74
2022/03/01 12:24:30;;;;;;;;;;;5.90;51.50;;;;;;5202265;28;20026;-74
2022/03/01 12:27:03;;;;;;;;;;;6.00;52.00;;;;;;5204009;28;19921;-73
2022/03/01 12:29:36;;;;;;;;;;;6.00;51.10;;;;;;5202521;28;19932;-73
2022/03/01 12:32:13;;;;;;;;;;;6.10;53.10;;;;;;5195255;28;20344;-72
2022/03/01 12:34:46;;;;;;;;;;;6.00;49.60;;;;;;5199039;28;19936;-75
2022/03/01 12:37:19;;;;;;;;;;;6.00;50.20;;;;;;5177830;28;19926;-75
2022/03/01 12:39:52;;;;;;;;;;;6.20;51.80;;;;;;5184929;28;19924;-76
2022/03/01 12:42:28;;;;;;;;;;;6.20;51.40;;;;;;5191599;28;19929;-75
2022/03/01 12:45:00;;;;;;;;;;;6.20;49.80;;;;;;5190824;28;19931;-76
2022/03/01 12:47:33;;;;;;;;;;;6.20;50.20;;;;;;5171236;28;20816;-75
2022/03/01 12:50:15;;;;;;;;;;;6.10;48.20;;;;;;5197325;28;19925;-74
2022/03/01 12:52:57;;;;;;;;;;;6.10;50.40;;;;;;5200294;28;19928;-76
2022/03/01 12:55:30;;;;;;;;;;;6.20;49.40;;;;;;5172313;28;20369;-75
2022/03/01 12:58:13;;;;;;;;;;;6.20;47.40;;;;;;5184329;28;19932;-75
2022/03/01 13:00:45;;;;;;;;;;;6.20;51.10;;;;;;5201160;28;19936;-75
2022/03/01 13:03:28;;;;;;;;;;;6.20;49.90;;;;;;5165992;28;19921;-78
2022/03/01 13:06:07;;;;;;;;;;;6.20;49.10;;;;;;5203926;28;19925;-77
2022/03/01 13:08:41;;;;;;;;;;;6.20;50.00;;;;;;5203577;28;20399;-76
2022/03/01 13:11:14;;;;;;;;;;;6.30;51.10;;;;;;5184009;28;20269;-75
2022/03/01 13:13:48;;;;;;;;;;;6.30;51.00;;;;;;5202789;28;20673;-77
2022/03/01 13:16:23;;;;;;;;;;;6.40;52.00;;;;;;5195270;28;19948;-76
2022/03/01 13:18:57;;;;;;;;;;;6.40;52.60;;;;;;5198930;28;19929;-76
2022/03/01 13:21:34;;;;;;;;;;;6.40;53.30;;;;;;5198291;28;19924;-75
2022/03/01 13:24:22;;;;;;;;;;;6.40;50.80;;;;;;5180296;28;19924;-76
2022/03/01 13:26:56;;;;;;;;;;;6.40;49.60;;;;;;5182231;28;19928;-74
2022/03/01 13:29:30;;;;;;;;;;;6.50;50.20;;;;;;5204386;28;19925;-75
2022/03/01 13:32:06;;;;;;;;;;;6.50;49.30;;;;;;5201159;28;19976;-76
2022/03/01 13:34:41;;;;;;;;;;;6.60;49.50;;;;;;5204465;28;19932;-76
2022/03/01 13:37:15;;;;;;;;;;;6.60;53.00;;;;;;5186253;28;19932;-77
2022/03/01 13:39:48;;;;;;;;;;;6.60;48.30;;;;;;5204615;28;20007;-76
2022/03/01 13:42:21;;;;;;;;;;;6.60;47.40;;;;;;5206740;28;19920;-76
2022/03/01 13:44:54;;;;;;;;;;;6.70;50.40;;;;;;5195642;28;19925;-76
2022/03/01 13:47:27;;;;;;;;;;;6.60;50.10;;;;;;5202524;28;19921;-77
2022/03/01 13:50:26;;;;;;;;;;;6.70;48.40;;;;;;5201350;28;19924;-77
2022/03/01 13:53:06;;;;;;;;;;;6.70;47.50;;;;;;5188428;28;20303;-76
2022/03/01 13:55:39;;;;;;;;;;;6.70;50.30;;;;;;5186021;28;19928;-78
2022/03/01 13:58:16;;;;;;;;;;;6.80;47.50;;;;;;5185928;28;19925;-75
2022/03/01 14:00:52;;;;;;;;;;;6.70;47.50;;;;;;5201045;28;19925;-77
2022/03/01 14:03:26;;;;;;;;;;;6.70;50.20;;;;;;5205975;28;19925;-73
2022/03/01 14:06:01;;;;;;;;;;;6.80;50.30;;;;;;5202371;28;19931;-76
2022/03/01 14:08:34;;;;;;;;;;;6.90;49.40;;;;;;5187472;28;20328;-75
2022/03/01 14:11:08;;;;;;;;;;;6.90;48.30;;;;;;5204254;28;19924;-74
2022/03/01 14:13:41;;;;;;;;;;;6.90;46.80;;;;;;5192855;28;19936;-75
2022/03/01 14:16:18;;;;;;;;;;;7.00;46.00;;;;;;5202772;28;19932;-75
2022/03/01 14:18:52;;;;;;;;;;;7.00;49.00;;;;;;5190484;28;19925;-75
2022/03/01 14:21:25;;;;;;;;;;;7.10;49.40;;;;;;5194231;28;19928;-76
2022/03/01 14:23:57;;;;;;;;;;;7.20;46.80;;;;;;5217279;28;19929;-77
2022/03/01 14:26:29;;;;;;;;;;;7.30;49.00;;;;;;5211821;28;19949;-72
2022/03/01 14:29:04;;;;;;;;;;;7.20;49.60;;;;;;5217662;28;19928;-77
2022/03/01 14:31:38;;;;;;;;;;;7.30;47.00;;;;;;5223226;28;19928;-76
2022/03/01 14:34:10;;;;;;;;;;;7.20;47.30;;;;;;5203397;28;19935;-74
2022/03/01 14:36:43;;;;;;;;;;;7.20;47.80;;;;;;5210998;28;19931;-76
2022/03/01 14:39:15;;;;;;;;;;;7.20;50.90;;;;;;5213485;28;19929;-75
2022/03/01 14:41:47;;;;;;;;;;;7.30;48.40;;;;;;5214609;28;19935;-73
2022/03/01 14:44:19;;;;;;;;;;;7.30;45.90;;;;;;5209923;28;19928;-75
2022/03/01 14:46:51;;;;;;;;;;;7.30;47.70;;;;;;5196951;28;19929;-76
2022/03/01 14:49:24;;;;;;;;;;;7.30;46.30;;;;;;5210782;28;20295;-76
2022/03/01 14:51:56;;;;;;;;;;;7.30;50.70;;;;;;5189274;28;19924;-79
2022/03/01 14:54:28;;;;;;;;;;;7.30;50.70;;;;;;5187736;28;20295;-78
2022/03/01 14:57:00;;;;;;;;;;;7.30;50.40;;;;;;5206183;28;19929;-77
2022/03/01 14:59:33;;;;;;;;;;;7.30;47.10;;;;;;5209438;28;19925;-77
2022/03/01 15:02:05;;;;;;;;;;;7.30;47.20;;;;;;5209279;28;20788;-78